Time;durP1;ratioP1;P1;durP2;ratioP2;P2;SDS_P1;SDS_P2;PMS_P1;PMS_P2;Temp;Humidity;BMP_temperature;BMP_pressure;BME280_temperature;BME280_humidity;BME280_pressure;Samples;Min_cycle;Max_cycle;Signal;HPM_P1;HPM_P2
2022/04/19 00:02:02;;;;;;;17.92;11.60;;;25.00;97.90;;;;;;1810504;78;21186;-84
2022/04/19 00:04:33;;;;;;;20.70;14.93;;;25.00;98.00;;;;;;1813581;78;21173;-83
2022/04/19 00:07:06;;;;;;;13.90;11.33;;;25.00;98.00;;;;;;1764975;80;21206;-82
2022/04/19 00:09:37;;;;;;;15.45;11.30;;;25.10;97.90;;;;;;1784326;78;21159;-83
2022/04/19 00:12:08;;;;;;;14.58;11.20;;;25.10;97.60;;;;;;1822494;78;21156;-83
2022/04/19 00:14:40;;;;;;;21.23;12.03;;;25.10;97.50;;;;;;1820132;78;21091;-72
2022/04/19 00:17:11;;;;;;;16.90;12.30;;;25.10;97.50;;;;;;1816396;78;21649;-73
2022/04/19 00:19:42;;;;;;;17.87;11.90;;;25.10;97.50;;;;;;1765640;80;21253;-73
2022/04/19 00:22:13;;;;;;;16.55;11.65;;;25.10;97.60;;;;;;1773061;80;22072;-75
2022/04/19 00:24:45;;;;;;;15.72;10.53;;;25.00;97.60;;;;;;1784558;78;21535;-75
2022/04/19 00:27:16;;;;;;;16.75;11.12;;;25.00;97.50;;;;;;1798292;78;21168;-74
2022/04/19 00:29:49;;;;;;;17.02;11.35;;;25.00;97.90;;;;;;1813968;78;21112;-75
2022/04/19 00:32:20;;;;;;;15.18;11.95;;;25.00;97.80;;;;;;1844878;76;21146;-74
2022/04/19 00:34:51;;;;;;;18.42;12.30;;;25.00;97.80;;;;;;1859454;76;21084;-74
2022/04/19 00:37:23;;;;;;;18.65;13.48;;;25.00;97.90;;;;;;1880544;76;21135;-74
2022/04/19 00:39:58;;;;;;;15.30;10.95;;;25.00;98.30;;;;;;1849408;76;21565;-73
2022/04/19 00:42:28;;;;;;;16.10;10.48;;;25.10;97.60;;;;;;1818253;77;21628;-74
2022/04/19 00:45:02;;;;;;;14.75;10.90;;;25.10;97.30;;;;;;1815968;79;21565;-76
2022/04/19 00:47:34;;;;;;;15.13;10.82;;;25.20;97.20;;;;;;1825391;76;21151;-75
2022/04/19 00:50:07;;;;;;;17.30;11.18;;;25.20;97.30;;;;;;1796059;80;21177;-74
2022/04/19 00:52:39;;;;;;;16.05;11.55;;;25.20;97.20;;;;;;1815044;78;21172;-75
2022/04/19 00:55:11;;;;;;;15.65;10.58;;;25.20;97.20;;;;;;1847670;76;21181;-75
2022/04/19 00:57:46;;;;;;;13.48;10.08;;;25.20;97.20;;;;;;1818971;79;21170;-74
2022/04/19 01:00:17;;;;;;;15.08;10.80;;;25.30;97.20;;;;;;1834166;76;21687;-75
2022/04/19 01:02:48;;;;;;;13.10;9.75;;;25.30;97.20;;;;;;1826886;77;21163;-75
2022/04/19 01:05:20;;;;;;;16.48;10.85;;;25.30;97.10;;;;;;1839034;76;21137;-75
2022/04/19 01:07:51;;;;;;;16.55;9.55;;;25.30;97.00;;;;;;1844753;76;21584;-74
2022/04/19 01:10:23;;;;;;;13.35;10.32;;;25.30;97.00;;;;;;1813462;79;21627;-75
2022/04/19 01:15:26;;;;;;;16.48;11.15;;;25.30;97.00;;;;;;1828756;77;21608;-74
2022/04/19 01:18:01;;;;;;;14.58;10.25;;;25.40;96.80;;;;;;1814953;78;21577;-74
2022/04/19 01:20:31;;;;;;;14.23;9.80;;;25.40;96.80;;;;;;1848283;76;21555;-71
2022/04/19 01:23:02;;;;;;;12.18;9.78;;;25.40;96.70;;;;;;1847677;76;21136;-73
2022/04/19 01:25:34;;;;;;;16.00;10.53;;;25.50;96.70;;;;;;1847056;77;21170;-74
2022/04/19 01:28:05;;;;;;;13.95;9.28;;;25.50;96.50;;;;;;1838581;77;21559;-74
2022/04/19 01:30:37;;;;;;;14.05;9.45;;;25.60;96.20;;;;;;1819633;77;21719;-74
2022/04/19 01:33:11;;;;;;;13.22;9.08;;;25.60;95.90;;;;;;1804080;78;21214;-74
2022/04/19 01:35:42;;;;;;;15.38;8.45;;;25.70;95.90;;;;;;1800834;78;21258;-72
2022/04/19 01:38:13;;;;;;;14.38;8.48;;;25.80;95.90;;;;;;1800075;78;21650;-73
2022/04/19 01:40:44;;;;;;;13.58;8.93;;;25.80;95.70;;;;;;1792834;78;21123;-73
2022/04/19 01:43:15;;;;;;;12.75;8.03;;;25.90;95.70;;;;;;1817431;78;21187;-74
2022/04/19 01:45:46;;;;;;;10.35;7.55;;;26.20;95.60;;;;;;1787568;79;21567;-73
2022/04/19 01:48:17;;;;;;;9.80;6.95;;;26.30;94.40;;;;;;1795565;80;21763;-72
2022/04/19 01:50:48;;;;;;;8.88;6.50;;;26.40;94.00;;;;;;1785503;79;21174;-73
2022/04/19 01:53:19;;;;;;;14.00;7.12;;;26.40;93.80;;;;;;1794495;79;21193;-73
2022/04/19 01:55:57;;;;;;;10.90;7.45;;;26.40;93.80;;;;;;1722656;82;21701;-74
2022/04/19 01:58:29;;;;;;;10.13;6.05;;;26.50;93.10;;;;;;1855312;75;21174;-72
2022/04/19 02:01:01;;;;;;;8.85;6.20;;;26.50;92.10;;;;;;1886190;75;21572;-73
2022/04/19 02:03:32;;;;;;;10.85;6.37;;;26.50;91.70;;;;;;1904002;74;21245;-73
2022/04/19 02:06:05;;;;;;;9.78;5.67;;;26.50;91.80;;;;;;1902465;75;21547;-73
2022/04/19 02:08:37;;;;;;;10.88;6.62;;;26.50;92.20;;;;;;1904152;75;21096;-74
2022/04/19 02:11:08;;;;;;;10.60;7.37;;;26.50;91.60;;;;;;1904463;75;21100;-73
2022/04/19 02:13:39;;;;;;;11.93;7.87;;;26.50;90.60;;;;;;1895422;75;21187;-74
2022/04/19 02:16:11;;;;;;;7.50;5.45;;;26.60;90.90;;;;;;1899944;75;21525;-75
2022/04/19 02:18:41;;;;;;;8.78;5.70;;;26.50;90.60;;;;;;1880733;75;21122;-74
2022/04/19 02:21:13;;;;;;;8.35;5.53;;;26.60;90.60;;;;;;1875881;75;21105;-74
2022/04/19 02:23:44;;;;;;;9.53;5.55;;;26.70;90.70;;;;;;1870587;77;21583;-75
2022/04/19 02:26:15;;;;;;;10.15;5.72;;;26.70;90.50;;;;;;1871239;75;21147;-74
2022/04/19 02:28:46;;;;;;;8.53;5.58;;;26.90;90.90;;;;;;1867094;74;21142;-73
2022/04/19 02:31:16;;;;;;;8.00;5.03;;;27.00;90.60;;;;;;1890202;75;21134;-74
2022/04/19 02:33:49;;;;;;;7.58;5.33;;;27.10;90.10;;;;;;1891470;75;21543;-75
2022/04/19 02:36:21;;;;;;;6.30;5.17;;;27.30;90.00;;;;;;1897805;74;21551;-73
2022/04/19 02:38:52;;;;;;;7.33;5.20;;;27.50;89.40;;;;;;1896095;75;21083;-73
2022/04/19 02:41:23;;;;;;;9.45;4.83;;;27.60;87.80;;;;;;1885697;75;21197;-73
2022/04/19 02:43:55;;;;;;;8.65;5.20;;;27.60;86.80;;;;;;1902372;75;21649;-73
2022/04/19 02:46:26;;;;;;;6.92;4.50;;;27.70;85.40;;;;;;1913424;74;21153;-73
2022/04/19 02:48:58;;;;;;;12.15;5.10;;;27.70;85.10;;;;;;1905736;75;21126;-73
2022/04/19 02:51:29;;;;;;;8.63;4.95;;;27.80;85.80;;;;;;1906319;75;21613;-73
2022/04/19 02:54:01;;;;;;;7.87;4.80;;;27.80;86.40;;;;;;1903623;75;21138;-74
2022/04/19 02:56:33;;;;;;;8.95;4.50;;;27.90;85.80;;;;;;1916971;73;21079;-73
2022/04/19 02:59:04;;;;;;;8.23;4.90;;;27.90;85.00;;;;;;1896373;75;21110;-73
2022/04/19 03:01:35;;;;;;;10.03;5.45;;;27.80;84.20;;;;;;1918198;74;21172;-73
2022/04/19 03:04:06;;;;;;;8.38;5.87;;;27.70;84.90;;;;;;1918221;74;21120;-74
2022/04/19 03:06:37;;;;;;;6.87;5.55;;;27.70;85.80;;;;;;1909952;74;21492;-74
2022/04/19 03:09:08;;;;;;;6.50;4.75;;;27.70;85.50;;;;;;1914269;74;21516;-74
2022/04/19 03:11:39;;;;;;;7.75;4.90;;;27.70;84.30;;;;;;1927761;74;21041;-73
2022/04/19 03:14:12;;;;;;;8.15;4.95;;;27.80;85.30;;;;;;1922200;74;21076;-73
2022/04/19 03:16:44;;;;;;;6.45;5.33;;;28.00;84.00;;;;;;1928647;74;21158;-74
2022/04/19 03:19:15;;;;;;;7.62;5.08;;;28.10;83.60;;;;;;1936528;74;21533;-74
2022/04/19 03:21:46;;;;;;;8.65;4.90;;;28.30;83.10;;;;;;1937154;74;21159;-73
2022/04/19 03:29:22;;;;;;;7.08;4.70;;;28.50;80.90;;;;;;1917502;74;21677;-73
2022/04/19 03:31:54;;;;;;;10.72;4.95;;;28.50;81.50;;;;;;1921229;73;21037;-81
2022/04/19 03:34:25;;;;;;;9.63;4.58;;;28.50;80.50;;;;;;1934302;74;21116;-81
2022/04/19 03:36:56;;;;;;;9.48;4.78;;;28.40;81.50;;;;;;1937497;73;21161;-81
2022/04/19 03:39:27;;;;;;;5.85;4.53;;;28.30;81.30;;;;;;1872040;75;21066;-81
2022/04/19 03:41:58;;;;;;;11.80;4.90;;;28.40;81.40;;;;;;1895596;76;21079;-81
2022/04/19 03:44:31;;;;;;;6.45;4.30;;;28.50;80.60;;;;;;1968608;72;21065;-82
2022/04/19 03:47:08;;;;;;;6.22;3.95;;;28.70;81.10;;;;;;1967018;72;21131;-81
2022/04/19 03:49:35;;;;;;;7.65;4.75;;;28.90;79.40;;;;;;1980619;72;21066;-82
2022/04/19 03:52:07;;;;;;;11.05;5.20;;;29.10;79.60;;;;;;1968705;72;21120;-83
2022/04/19 03:54:38;;;;;;;9.50;4.75;;;29.30;78.70;;;;;;1960461;72;21110;-83
2022/04/19 03:57:11;;;;;;;8.85;4.72;;;29.40;77.90;;;;;;1958551;72;21068;-83
2022/04/19 03:59:42;;;;;;;5.97;4.10;;;29.50;77.30;;;;;;1971354;71;21165;-83
2022/04/19 04:02:15;;;;;;;9.23;4.17;;;29.50;76.20;;;;;;1988889;72;21072;-83
2022/04/19 04:04:46;;;;;;;9.65;4.40;;;29.60;75.90;;;;;;1967294;72;21091;-81
2022/04/19 04:07:20;;;;;;;7.45;3.58;;;29.70;75.10;;;;;;1985227;72;21129;-82
2022/04/19 04:09:56;;;;;;;8.10;3.90;;;29.80;74.10;;;;;;1984853;72;21522;-81
2022/04/19 04:12:25;;;;;;;5.08;3.55;;;29.90;73.70;;;;;;1986354;72;21550;-69
2022/04/19 04:14:57;;;;;;;8.83;3.95;;;30.00;72.70;;;;;;1968064;71;21535;-70
2022/04/19 04:17:28;;;;;;;7.00;3.83;;;30.10;71.80;;;;;;1960554;72;21055;-72
2022/04/19 04:19:59;;;;;;;8.63;3.72;;;30.20;71.80;;;;;;1956184;73;21457;-72
2022/04/19 04:22:30;;;;;;;6.65;4.20;;;30.10;71.30;;;;;;1962933;72;21520;-73
2022/04/19 04:25:05;;;;;;;8.03;4.05;;;30.00;70.90;;;;;;1988320;71;21158;-72
2022/04/19 04:27:36;;;;;;;5.83;3.60;;;29.90;70.70;;;;;;1962517;72;21644;-72
2022/04/19 04:30:08;;;;;;;7.42;3.85;;;29.80;71.80;;;;;;1958679;72;21668;-72
2022/04/19 04:32:39;;;;;;;6.05;4.25;;;29.90;71.80;;;;;;1988081;72;21531;-70
2022/04/19 04:35:10;;;;;;;9.20;4.53;;;30.00;71.70;;;;;;1968544;72;21055;-72
2022/04/19 04:37:42;;;;;;;8.30;4.35;;;30.00;71.90;;;;;;1971425;71;21644;-73
2022/04/19 04:40:13;;;;;;;4.92;3.65;;;30.10;71.50;;;;;;1991346;72;21581;-71
2022/04/19 04:42:45;;;;;;;6.62;3.95;;;30.30;73.20;;;;;;1978511;71;21068;-71
2022/04/19 04:45:16;;;;;;;6.42;3.58;;;30.30;70.20;;;;;;1963142;71;21099;-71
2022/04/19 04:50:23;;;;;;;8.38;4.28;;;30.40;70.30;;;;;;1955062;72;21126;-71
2022/04/19 04:52:54;;;;;;;7.08;4.12;;;30.50;69.40;;;;;;1977492;71;21063;-72
2022/04/19 04:55:25;;;;;;;8.60;3.70;;;30.60;68.40;;;;;;1956229;72;21130;-71
2022/04/19 04:57:59;;;;;;;8.15;4.45;;;30.60;68.40;;;;;;1964783;71;21204;-71
2022/04/19 05:00:30;;;;;;;10.03;4.10;;;30.60;68.90;;;;;;1972195;71;21069;-72
2022/04/19 05:03:01;;;;;;;5.58;3.92;;;30.70;67.80;;;;;;1946274;72;21117;-70
2022/04/19 05:05:32;;;;;;;4.83;3.72;;;30.70;68.00;;;;;;1957149;72;21167;-70
2022/04/19 05:08:06;;;;;;;6.60;4.22;;;30.70;68.30;;;;;;1954076;72;21170;-70
2022/04/19 05:10:37;;;;;;;6.37;4.15;;;30.90;68.90;;;;;;1946247;72;21494;-70
2022/04/19 05:13:08;;;;;;;7.12;3.85;;;31.00;71.80;;;;;;1947643;72;21073;-70
2022/04/19 05:15:39;;;;;;;9.25;4.40;;;31.10;67.60;;;;;;1948103;72;21132;-70
2022/04/19 05:18:11;;;;;;;6.40;3.72;;;31.10;66.30;;;;;;1961395;72;21081;-71
2022/04/19 05:20:42;;;;;;;6.12;3.80;;;31.10;65.90;;;;;;1967465;72;21069;-70
2022/04/19 05:23:13;;;;;;;6.78;3.95;;;31.00;66.00;;;;;;1946844;72;21529;-72
2022/04/19 05:25:46;;;;;;;8.28;3.90;;;31.00;66.30;;;;;;1945837;72;21125;-71
2022/04/19 05:28:17;;;;;;;9.68;3.85;;;31.10;66.50;;;;;;1946178;72;21120;-71
2022/04/19 05:30:48;;;;;;;5.78;3.58;;;31.10;67.10;;;;;;1951394;73;21516;-71
2022/04/19 05:33:26;;;;;;;6.53;3.98;;;31.20;66.10;;;;;;1952042;72;21183;-70
2022/04/19 05:35:57;;;;;;;7.78;3.75;;;31.20;64.70;;;;;;1954849;72;21501;-71
2022/04/19 05:38:28;;;;;;;7.22;3.85;;;31.30;66.60;;;;;;1980965;72;21147;-71
2022/04/19 05:41:00;;;;;;;8.15;4.03;;;31.20;64.80;;;;;;1975038;72;21537;-71
2022/04/19 05:43:31;;;;;;;11.55;4.17;;;31.20;65.10;;;;;;1977315;72;21113;-71
2022/04/19 05:46:02;;;;;;;6.97;3.87;;;31.30;66.10;;;;;;1981705;71;21108;-71
2022/04/19 05:48:33;;;;;;;5.80;3.90;;;31.30;67.50;;;;;;1927058;74;21646;-72
2022/04/19 05:51:04;;;;;;;7.97;4.47;;;31.40;67.40;;;;;;1972064;71;21074;-71
2022/04/19 05:53:35;;;;;;;7.03;4.65;;;31.50;66.70;;;;;;1964403;71;21052;-72
2022/04/19 05:56:06;;;;;;;7.58;4.17;;;31.50;65.10;;;;;;1976212;71;21056;-71
2022/04/19 05:58:38;;;;;;;8.33;4.17;;;31.50;65.90;;;;;;1974756;71;21536;-71
2022/04/19 06:01:09;;;;;;;7.30;3.98;;;31.60;65.30;;;;;;1976523;71;21560;-72
2022/04/19 06:06:12;;;;;;;8.08;4.72;;;31.70;65.00;;;;;;1985532;72;21123;-72
2022/04/19 06:08:44;;;;;;;8.08;3.85;;;31.70;64.20;;;;;;1920437;74;21541;-72
2022/04/19 06:11:22;;;;;;;6.37;3.87;;;31.70;64.00;;;;;;1960231;71;21108;-73
2022/04/19 06:13:53;;;;;;;6.75;4.10;;;31.70;64.50;;;;;;1961714;71;21115;-72
2022/04/19 06:16:26;;;;;;;5.08;3.77;;;31.70;65.00;;;;;;1957971;72;21073;-72
2022/04/19 06:18:58;;;;;;;7.92;4.33;;;31.80;64.50;;;;;;1971974;72;21634;-72
2022/04/19 06:21:29;;;;;;;9.93;4.40;;;31.80;63.50;;;;;;1976322;71;21197;-72
2022/04/19 06:24:03;;;;;;;6.12;4.00;;;31.70;62.80;;;;;;1977483;72;21124;-72
2022/04/19 06:26:32;;;;;;;8.05;3.90;;;31.70;63.40;;;;;;1895730;75;21552;-72
2022/04/19 06:29:04;;;;;;;6.35;4.00;;;31.70;63.00;;;;;;1945639;72;21139;-71
2022/04/19 06:31:40;;;;;;;6.23;3.97;;;31.70;64.10;;;;;;1937525;73;21518;-71
2022/04/19 06:34:11;;;;;;;8.75;4.40;;;31.70;63.30;;;;;;1949907;73;21131;-71
2022/04/19 06:36:44;;;;;;;5.72;4.42;;;31.70;63.20;;;;;;1975174;72;21078;-71
2022/04/19 06:39:15;;;;;;;6.45;3.85;;;31.70;63.00;;;;;;1947326;73;21081;-71
2022/04/19 06:41:46;;;;;;;6.83;4.05;;;31.70;62.80;;;;;;1973069;73;21593;-71
2022/04/19 06:44:18;;;;;;;7.97;4.15;;;31.70;62.40;;;;;;1940754;73;21046;-72
2022/04/19 06:46:50;;;;;;;5.67;3.87;;;31.70;62.50;;;;;;1939914;73;21053;-73
2022/04/19 06:49:23;;;;;;;6.75;3.80;;;31.60;63.20;;;;;;1939925;73;21160;-71
2022/04/19 06:51:54;;;;;;;6.72;4.12;;;31.60;63.90;;;;;;1939925;73;21074;-71
2022/04/19 06:54:25;;;;;;;6.90;4.10;;;31.50;63.90;;;;;;1951450;73;21054;-73
2022/04/19 06:57:00;;;;;;;8.15;3.90;;;31.60;65.90;;;;;;1940197;73;21156;-71
2022/04/19 06:59:31;;;;;;;9.65;3.95;;;31.60;63.20;;;;;;1902578;74;21084;-72
2022/04/19 07:02:02;;;;;;;8.60;4.15;;;31.60;64.20;;;;;;1891370;74;21065;-71
2022/04/19 07:04:33;;;;;;;9.40;4.05;;;31.70;63.60;;;;;;1891653;75;21614;-72
2022/04/19 07:07:04;;;;;;;7.55;4.58;;;31.70;63.20;;;;;;1880608;76;21084;-72
2022/04/19 07:09:35;;;;;;;7.70;4.30;;;31.70;63.20;;;;;;1880303;75;21080;-73
2022/04/19 07:12:08;;;;;;;7.75;3.98;;;31.70;63.10;;;;;;1873224;75;21574;-72
2022/04/19 07:14:39;;;;;;;7.05;3.87;;;31.60;63.30;;;;;;1917859;74;21528;-71
2022/04/19 07:17:11;;;;;;;6.53;4.05;;;31.60;63.30;;;;;;1898336;75;21080;-71
2022/04/19 07:27:22;;;;;;;7.58;4.15;;;31.60;63.90;;;;;;1881953;75;21168;-70
2022/04/19 07:29:54;;;;;;;6.08;4.08;;;31.70;64.10;;;;;;1868114;75;21604;-71
2022/04/19 07:32:25;;;;;;;6.30;4.03;;;31.70;63.40;;;;;;1909689;73;21117;-72
2022/04/19 07:34:56;;;;;;;10.00;4.10;;;31.70;63.20;;;;;;1882375;74;21066;-72
2022/04/19 07:37:30;;;;;;;7.17;3.90;;;31.70;63.70;;;;;;1929239;74;21588;-72
2022/04/19 07:40:02;;;;;;;7.15;4.70;;;31.70;64.00;;;;;;1910126;74;21086;-72
2022/04/19 07:42:34;;;;;;;5.90;3.72;;;31.70;62.60;;;;;;1898459;75;21611;-71
2022/04/19 07:45:06;;;;;;;6.37;3.80;;;31.70;64.00;;;;;;1902950;74;21137;-72
2022/04/19 07:47:41;;;;;;;8.63;4.35;;;31.70;62.70;;;;;;1898573;75;21126;-71
2022/04/19 07:50:11;;;;;;;9.08;4.22;;;31.60;63.40;;;;;;1911393;74;21510;-71
2022/04/19 07:52:46;;;;;;;8.60;4.50;;;31.60;62.50;;;;;;1907698;74;21099;-71
2022/04/19 07:55:15;;;;;;;7.28;4.45;;;31.70;63.20;;;;;;1920777;74;21542;-71
2022/04/19 07:57:47;;;;;;;5.53;3.80;;;31.60;62.30;;;;;;1902874;74;21593;-72
2022/04/19 08:00:21;;;;;;;10.58;4.90;;;31.50;64.40;;;;;;1909957;74;21603;-72
2022/04/19 08:02:52;;;;;;;9.60;4.45;;;31.50;62.10;;;;;;1932480;71;21038;-72
2022/04/19 08:05:35;;;;;;;8.60;4.30;;;31.50;62.00;;;;;;1963600;72;21128;-72
2022/04/19 08:08:06;;;;;;;7.53;4.22;;;31.40;62.40;;;;;;1943909;71;21122;-72
2022/04/19 08:10:37;;;;;;;6.58;4.00;;;31.40;63.30;;;;;;1962229;73;21104;-71
2022/04/19 08:13:09;;;;;;;7.42;3.87;;;31.40;62.80;;;;;;1959753;71;21070;-72
2022/04/19 08:15:40;;;;;;;5.70;3.98;;;31.40;63.10;;;;;;1951168;71;21041;-72
2022/04/19 08:18:14;;;;;;;8.53;4.22;;;31.30;62.90;;;;;;1934241;73;21065;-72
2022/04/19 08:20:45;;;;;;;6.95;4.20;;;31.30;62.90;;;;;;1946531;72;21178;-71
2022/04/19 08:23:19;;;;;;;7.83;3.80;;;31.20;63.40;;;;;;1951875;72;21077;-71
2022/04/19 08:25:51;;;;;;;7.03;4.17;;;31.20;63.80;;;;;;1967244;71;21133;-71
2022/04/19 08:28:22;;;;;;;9.18;4.05;;;31.20;64.10;;;;;;1958579;71;21122;-69
2022/04/19 08:30:54;;;;;;;6.17;3.90;;;31.30;64.50;;;;;;1948787;71;21069;-69
2022/04/19 08:33:25;;;;;;;7.45;4.60;;;31.40;62.90;;;;;;1950420;71;21195;-69
2022/04/19 08:35:56;;;;;;;9.85;4.62;;;31.40;62.40;;;;;;1956292;73;21564;-70
2022/04/19 08:38:28;;;;;;;5.78;3.60;;;31.40;62.80;;;;;;1939837;73;21085;-70
2022/04/19 08:41:00;;;;;;;6.65;4.45;;;31.40;61.90;;;;;;1951333;73;21128;-70
2022/04/19 08:43:34;;;;;;;9.13;4.55;;;31.40;62.60;;;;;;1940011;74;21082;-70
2022/04/19 08:46:06;;;;;;;6.50;4.12;;;31.40;62.60;;;;;;1941351;71;21105;-70
2022/04/19 08:48:39;;;;;;;6.75;4.67;;;31.40;62.60;;;;;;1962192;71;21714;-69
2022/04/19 08:51:12;;;;;;;8.00;4.55;;;31.40;62.40;;;;;;1960305;72;21223;-71
2022/04/19 08:58:51;;;;;;;6.78;4.35;;;31.30;63.30;;;;;;1937211;73;21490;-71
2022/04/19 09:01:22;;;;;;;10.03;4.87;;;31.30;62.40;;;;;;1956429;73;21089;-70
2022/04/19 09:03:53;;;;;;;9.10;4.87;;;31.40;62.20;;;;;;1920106;74;21064;-71
2022/04/19 09:06:27;;;;;;;8.63;4.92;;;31.40;63.00;;;;;;1898025;75;21071;-70
2022/04/19 09:09:00;;;;;;;9.95;5.20;;;31.30;62.10;;;;;;1871592;75;21145;-70
2022/04/19 09:11:34;;;;;;;10.53;4.80;;;31.40;62.60;;;;;;1890851;75;21083;-71
2022/04/19 09:14:07;;;;;;;6.00;4.35;;;31.40;62.80;;;;;;1889282;75;21598;-70
2022/04/19 09:16:38;;;;;;;8.75;4.62;;;31.50;62.60;;;;;;1886865;75;21157;-70
2022/04/19 09:19:10;;;;;;;13.53;4.90;;;31.40;62.70;;;;;;1885134;75;21241;-71
2022/04/19 09:21:42;;;;;;;6.50;4.40;;;31.40;62.30;;;;;;1879588;73;21083;-70
2022/04/19 09:24:15;;;;;;;8.65;5.37;;;31.50;62.90;;;;;;1897443;73;21173;-71
2022/04/19 09:26:48;;;;;;;9.80;5.40;;;31.40;62.70;;;;;;1890897;75;21154;-71
2022/04/19 09:29:21;;;;;;;9.78;4.87;;;31.40;63.40;;;;;;1880839;75;21125;-71
2022/04/19 09:32:01;;;;;;;9.45;4.45;;;31.50;62.30;;;;;;1901086;73;21600;-71
2022/04/19 09:34:33;;;;;;;8.65;5.10;;;31.50;62.30;;;;;;1910860;74;21125;-71
2022/04/19 09:37:07;;;;;;;9.80;4.92;;;31.50;61.30;;;;;;1896361;73;21039;-72
2022/04/19 09:39:44;;;;;;;8.50;4.80;;;31.50;63.60;;;;;;1903032;73;21060;-71
2022/04/19 09:42:15;;;;;;;7.55;4.90;;;31.60;64.10;;;;;;1896457;75;21184;-71
2022/04/19 09:44:49;;;;;;;11.78;5.08;;;31.50;62.00;;;;;;1883476;75;21141;-71
2022/04/19 09:47:22;;;;;;;;;;;31.50;61.60;;;;;;1884870;73;21127;-71
2022/04/19 09:49:55;;;;;;;7.15;4.80;;;31.40;62.50;;;;;;1894662;75;20200;-71
2022/04/19 09:52:29;;;;;;;11.05;5.20;;;31.40;62.70;;;;;;1894606;75;21610;-71
2022/04/19 09:55:03;;;;;;;11.05;5.17;;;31.30;62.20;;;;;;1883438;74;21150;-71
2022/04/19 09:57:36;;;;;;;10.25;5.40;;;31.30;63.10;;;;;;1895020;74;21052;-71
2022/04/19 10:00:09;;;;;;;9.25;5.03;;;31.30;62.30;;;;;;1895515;74;21542;-70
2022/04/19 10:10:27;;;;;;;7.47;4.53;;;31.30;62.10;;;;;;1954673;71;21066;-73
2022/04/19 10:13:03;;;;;;;7.58;4.37;;;31.30;62.30;;;;;;1911757;74;21186;-71
2022/04/19 10:15:36;;;;;;;10.32;5.33;;;31.30;62.40;;;;;;1940512;72;21617;-72
2022/04/19 10:18:08;;;;;;;10.40;5.42;;;31.30;62.60;;;;;;1955219;72;21601;-84
2022/04/19 10:20:42;;;;;;;11.03;6.15;;;31.20;63.00;;;;;;1955128;71;21091;-82
2022/04/19 10:23:15;;;;;;;10.78;5.95;;;31.20;63.10;;;;;;1959630;72;21064;-82
2022/04/19 10:25:49;;;;;;;8.45;5.33;;;31.20;62.80;;;;;;1946829;72;21062;-83
2022/04/19 10:28:22;;;;;;;11.00;5.00;;;31.20;63.50;;;;;;1959597;71;21124;-82
2022/04/19 10:30:55;;;;;;;10.23;5.33;;;31.10;62.80;;;;;;1882905;74;21109;-81
2022/04/19 10:33:31;;;;;;;10.25;5.35;;;31.10;63.00;;;;;;1946269;72;21129;-82
2022/04/19 10:36:04;;;;;;;;;;;31.20;63.30;;;;;;1974910;71;21246;-82
2022/04/19 10:38:35;;;;;;;12.65;6.08;;;31.10;65.20;;;;;;1954364;72;20457;-83
2022/04/19 10:41:07;;;;;;;8.63;5.47;;;31.20;63.30;;;;;;1970852;71;21070;-84
2022/04/19 10:43:38;;;;;;;15.10;5.80;;;31.20;63.20;;;;;;1951185;71;21153;-83
2022/04/19 10:46:11;;;;;;;15.00;6.33;;;31.20;63.20;;;;;;1968693;72;21117;-82
2022/04/19 10:48:48;;;;;;;13.30;5.90;;;31.20;63.70;;;;;;1976575;71;21046;-82
2022/04/19 10:51:24;;;;;;;8.60;5.30;;;31.10;63.40;;;;;;1963903;71;21128;-82
2022/04/19 10:53:55;;;;;;;10.93;5.78;;;31.10;63.20;;;;;;1937635;73;21059;-83
2022/04/19 10:56:28;;;;;;;9.13;5.30;;;31.10;64.20;;;;;;1951357;72;21125;-83
2022/04/19 10:59:02;;;;;;;10.20;5.72;;;31.00;63.70;;;;;;1934133;73;21148;-81
2022/04/19 11:01:38;;;;;;;8.78;6.05;;;31.00;64.30;;;;;;1932390;73;21044;-82
2022/04/19 11:04:11;;;;;;;14.43;6.85;;;31.00;64.00;;;;;;1962755;72;21173;-82
2022/04/19 11:06:42;;;;;;;13.10;7.22;;;30.90;64.40;;;;;;1952355;71;21077;-81
2022/04/19 11:09:16;;;;;;;11.50;7.05;;;30.90;64.00;;;;;;1948110;73;21125;-82
2022/04/19 11:11:50;;;;;;;11.95;7.00;;;30.90;64.10;;;;;;1958019;71;21143;-81
2022/04/19 11:14:26;;;;;;;9.88;6.87;;;30.90;64.60;;;;;;1943562;73;21120;-80
2022/04/19 11:16:59;;;;;;;12.47;6.60;;;30.80;64.60;;;;;;1936489;73;21127;-83
2022/04/19 11:19:32;;;;;;;18.70;6.35;;;30.80;64.20;;;;;;1947365;71;21103;-81
2022/04/19 11:22:03;;;;;;;10.90;7.37;;;30.80;64.30;;;;;;1961473;71;21046;-81
2022/04/19 11:24:37;;;;;;;12.90;6.78;;;30.80;64.70;;;;;;1950926;71;21116;-82
2022/04/19 11:27:08;;;;;;;14.85;7.17;;;30.80;64.70;;;;;;1959593;72;21167;-81
2022/04/19 11:29:41;;;;;;;11.90;6.62;;;30.70;64.60;;;;;;1954229;73;21105;-82
2022/04/19 11:32:12;;;;;;;14.90;7.00;;;30.70;64.90;;;;;;1947982;71;21201;-82
2022/04/19 11:34:47;;;;;;;15.70;7.03;;;30.70;65.10;;;;;;1941345;73;21104;-81
2022/04/19 11:37:22;;;;;;;13.25;7.62;;;30.70;65.00;;;;;;1955410;73;21278;-83
2022/04/19 11:47:35;;;;;;;13.78;10.32;;;30.60;65.90;;;;;;1952790;73;21151;-81
2022/04/19 11:50:06;;;;;;;21.10;11.35;;;30.60;66.20;;;;;;1911756;74;21144;-81
2022/04/19 11:52:40;;;;;;;17.77;11.83;;;30.60;66.20;;;;;;1909045;73;21229;-81
2022/04/19 11:55:11;;;;;;;15.88;10.68;;;30.60;66.20;;;;;;1916466;74;21127;-82
2022/04/19 11:57:43;;;;;;;16.75;10.58;;;30.60;66.50;;;;;;1875258;75;21148;-83
2022/04/19 12:00:21;;;;;;;20.15;10.05;;;30.60;66.60;;;;;;1935461;73;21560;-82
2022/04/19 12:02:52;;;;;;;18.77;10.68;;;30.50;66.60;;;;;;1952197;72;21566;-81
2022/04/19 12:05:28;;;;;;;18.75;11.00;;;30.50;66.90;;;;;;1950872;71;21205;-81
2022/04/19 12:07:58;;;;;;;17.75;10.32;;;30.50;67.50;;;;;;1956643;71;21071;-83
2022/04/19 12:10:29;;;;;;;19.70;12.65;;;30.50;67.50;;;;;;1959513;71;21147;-83
2022/04/19 12:13:00;;;;;;;20.68;12.45;;;30.40;67.60;;;;;;1872121;75;21127;-83
2022/04/19 12:15:35;;;;;;;20.20;12.05;;;30.40;68.50;;;;;;1884221;74;21139;-83
2022/04/19 12:18:07;;;;;;;16.57;11.35;;;30.40;67.90;;;;;;1880663;74;21084;-82
2022/04/19 12:20:41;;;;;;;17.55;10.98;;;30.40;68.10;;;;;;1937313;72;21175;-81
2022/04/19 12:23:15;;;;;;;16.95;10.78;;;30.40;67.90;;;;;;1957881;71;21063;-82
2022/04/19 12:25:48;;;;;;;17.30;10.38;;;30.40;67.90;;;;;;1950549;72;21053;-83
2022/04/19 12:28:19;;;;;;;19.73;10.58;;;30.40;68.00;;;;;;1948991;71;21122;-81
2022/04/19 12:30:50;;;;;;;20.37;11.08;;;30.40;68.10;;;;;;1963391;71;21064;-82
2022/04/19 12:33:22;;;;;;;17.70;10.63;;;30.40;68.10;;;;;;1956371;71;21135;-83
2022/04/19 12:35:58;;;;;;;18.77;11.65;;;30.40;68.20;;;;;;1936651;72;21069;-83
2022/04/19 12:38:32;;;;;;;19.73;12.07;;;30.30;68.10;;;;;;1931502;72;21158;-82
2022/04/19 12:41:08;;;;;;;24.05;12.50;;;30.30;68.20;;;;;;1955186;71;21140;-84
2022/04/19 12:43:41;;;;;;;17.12;11.60;;;30.30;68.30;;;;;;1942199;71;21127;-83
2022/04/19 12:46:16;;;;;;;19.37;11.35;;;30.30;68.40;;;;;;1954091;71;21155;-83
2022/04/19 12:48:49;;;;;;;24.40;11.75;;;30.30;68.40;;;;;;1954675;71;21138;-81
2022/04/19 12:51:24;;;;;;;23.73;12.33;;;30.30;68.50;;;;;;1957278;71;21072;-81
2022/04/19 12:54:01;;;;;;;23.50;13.48;;;30.30;68.60;;;;;;1931316;71;21555;-81
2022/04/19 12:56:34;;;;;;;20.17;13.20;;;30.30;68.50;;;;;;1904286;75;21208;-81
2022/04/19 12:59:09;;;;;;;24.07;12.73;;;30.20;68.40;;;;;;1943279;72;21205;-81
2022/04/19 13:01:40;;;;;;;20.85;12.95;;;30.20;68.60;;;;;;1948004;73;21044;-82
2022/04/19 13:04:11;;;;;;;27.07;12.95;;;30.30;68.90;;;;;;1939948;74;21040;-82
2022/04/19 13:14:19;;;;;;;21.70;12.80;;;30.20;69.00;;;;;;1897543;74;21206;-81
2022/04/19 13:16:51;;;;;;;19.87;12.10;;;30.20;69.10;;;;;;1891948;75;21171;-81
2022/04/19 13:19:25;;;;;;;18.65;12.30;;;30.20;69.10;;;;;;1905804;74;21086;-82
2022/04/19 13:21:56;;;;;;;21.93;12.53;;;30.10;69.30;;;;;;1939872;73;21101;-82
2022/04/19 13:24:27;;;;;;;17.77;12.10;;;30.20;69.60;;;;;;1900136;74;21078;-81
2022/04/19 13:26:59;;;;;;;21.82;12.13;;;30.10;69.50;;;;;;1879282;74;21139;-82
2022/04/19 13:29:33;;;;;;;21.07;12.07;;;30.10;69.40;;;;;;1912266;74;21062;-81
2022/04/19 13:32:05;;;;;;;21.80;12.58;;;30.10;69.70;;;;;;1941894;74;21101;-80
2022/04/19 13:34:41;;;;;;;21.77;12.65;;;30.10;70.80;;;;;;1942421;73;21170;-80
2022/04/19 13:37:12;;;;;;;23.30;13.22;;;30.10;69.80;;;;;;1957674;72;21066;-81
2022/04/19 13:39:44;;;;;;;26.23;14.47;;;30.10;69.90;;;;;;1964262;72;21136;-81
2022/04/19 13:42:20;;;;;;;22.45;12.85;;;30.10;69.80;;;;;;1960068;72;21066;-81
2022/04/19 13:44:53;;;;;;;20.48;12.40;;;30.10;70.10;;;;;;1940839;72;21091;-81
2022/04/19 13:47:24;;;;;;;18.42;11.90;;;30.10;70.20;;;;;;1919735;73;21123;-81
2022/04/19 13:49:57;;;;;;;22.27;13.70;;;30.10;70.40;;;;;;1940944;74;21062;-83
2022/04/19 13:52:33;;;;;;;21.27;12.53;;;30.10;70.40;;;;;;1946037;72;21595;-82
2022/04/19 13:55:05;;;;;;;25.70;13.00;;;30.10;70.70;;;;;;1972891;71;21058;-82